Time;durP1;ratioP1;P1;durP2;ratioP2;P2;SDS_P1;SDS_P2;PMS_P1;PMS_P2;Temp;Humidity;BMP_temperature;BMP_pressure;BME280_temperature;BME280_humidity;BME280_pressure;Samples;Min_cycle;Max_cycle;Signal;HPM_P1;HPM_P2
2023/02/23 00:01:14;;;;;;;155.30;27.50;;;13.60;93.60;;;;;;5024689;28;20446;-58
2023/02/23 00:03:40;;;;;;;129.15;24.50;;;13.60;93.70;;;;;;5024714;28;20121;-58
2023/02/23 00:06:07;;;;;;;135.15;26.08;;;13.50;93.60;;;;;;5008405;28;20108;-57
2023/02/23 00:08:34;;;;;;;136.23;25.42;;;13.50;93.70;;;;;;5024751;28;20466;-58
2023/02/23 00:11:01;;;;;;;145.18;26.27;;;13.50;93.70;;;;;;5025888;28;20192;-58
2023/02/23 00:13:27;;;;;;;148.07;25.13;;;13.50;93.70;;;;;;5025946;28;20050;-58
2023/02/23 00:15:54;;;;;;;150.85;25.38;;;13.50;93.70;;;;;;5024567;28;20037;-58
2023/02/23 00:18:19;;;;;;;130.55;24.52;;;13.50;93.70;;;;;;5026056;28;20103;-58
2023/02/23 00:20:56;;;;;;;125.20;24.83;;;13.40;93.80;;;;;;5024551;28;20026;-58
2023/02/23 00:23:22;;;;;;;118.20;22.65;;;13.40;93.90;;;;;;5024556;28;20029;-58
2023/02/23 00:25:47;;;;;;;131.57;23.60;;;13.40;93.90;;;;;;5024637;28;20053;-58
2023/02/23 00:28:13;;;;;;;134.50;24.20;;;13.40;93.90;;;;;;5025733;28;20040;-58
2023/02/23 00:30:38;;;;;;;106.10;22.55;;;13.30;94.00;;;;;;5024494;28;20045;-58
2023/02/23 00:33:04;;;;;;;109.40;22.85;;;13.30;94.00;;;;;;5025697;28;20041;-58
2023/02/23 00:35:29;;;;;;;130.02;23.65;;;13.30;94.00;;;;;;5024451;28;20042;-58
2023/02/23 00:37:55;;;;;;;119.80;23.17;;;13.30;94.10;;;;;;5023948;28;20032;-58
2023/02/23 00:40:22;;;;;;;120.28;23.58;;;13.30;94.10;;;;;;5008050;28;20029;-58
2023/02/23 00:42:50;;;;;;;108.97;22.55;;;13.30;94.10;;;;;;5024537;28;20040;-58
2023/02/23 00:45:15;;;;;;;108.40;20.42;;;13.20;94.10;;;;;;5025602;28;20091;-58
2023/02/23 00:47:42;;;;;;;114.75;21.35;;;13.20;94.10;;;;;;5007642;28;20057;-58
2023/02/23 00:50:11;;;;;;;96.43;20.73;;;13.20;94.10;;;;;;5025564;28;20056;-58
2023/02/23 00:52:40;;;;;;;96.90;20.65;;;13.20;94.20;;;;;;5024200;28;20040;-58
2023/02/23 00:55:09;;;;;;;88.85;20.40;;;13.10;94.10;;;;;;5025460;28;20030;-58
2023/02/23 00:57:35;;;;;;;99.75;21.98;;;13.10;94.20;;;;;;5025700;28;20042;-58
2023/02/23 01:00:06;;;;;;;107.18;20.70;;;13.10;94.20;;;;;;5006957;28;20034;-58
2023/02/23 01:02:31;;;;;;;109.13;21.10;;;13.20;94.20;;;;;;5008310;28;20036;-58
2023/02/23 01:04:57;;;;;;;89.43;20.13;;;13.10;94.20;;;;;;5023883;28;20034;-58
2023/02/23 01:07:24;;;;;;;80.93;20.00;;;13.10;94.30;;;;;;5007204;28;20449;-58
2023/02/23 01:09:50;;;;;;;113.10;19.42;;;13.10;94.30;;;;;;5007941;28;20117;-57
2023/02/23 01:12:16;;;;;;;83.13;18.52;;;13.10;94.20;;;;;;5025181;28;20121;-58
2023/02/23 01:14:41;;;;;;;83.03;19.38;;;13.10;94.20;;;;;;5007367;28;20117;-58
2023/02/23 01:17:07;;;;;;;75.10;17.98;;;13.10;94.10;;;;;;5039996;28;20122;-58
2023/02/23 01:19:33;;;;;;;74.68;17.13;;;13.10;94.10;;;;;;5007299;28;20029;-57
2023/02/23 01:22:01;;;;;;;78.78;17.83;;;13.00;94.10;;;;;;5023585;28;20084;-58
2023/02/23 01:24:27;;;;;;;63.80;16.42;;;13.00;94.20;;;;;;5023534;28;20034;-58
2023/02/23 01:26:53;;;;;;;79.70;16.80;;;13.00;94.20;;;;;;5024853;28;20134;-58
2023/02/23 01:29:18;;;;;;;70.55;16.50;;;13.00;94.30;;;;;;5007113;28;20520;-58
2023/02/23 01:31:45;;;;;;;65.45;16.48;;;13.00;94.30;;;;;;5023671;28;20022;-58
2023/02/23 01:34:12;;;;;;;64.38;15.63;;;13.00;94.40;;;;;;5023209;28;20083;-58
2023/02/23 01:36:38;;;;;;;63.85;14.80;;;13.00;94.40;;;;;;5023535;28;20053;-58
2023/02/23 01:39:06;;;;;;;77.60;16.27;;;13.00;94.50;;;;;;5023179;28;20022;-58
2023/02/23 01:41:32;;;;;;;69.53;15.98;;;12.90;94.50;;;;;;5023471;28;20044;-58
2023/02/23 01:44:05;;;;;;;74.88;16.80;;;12.90;94.50;;;;;;5024705;28;20461;-58
2023/02/23 01:46:34;;;;;;;60.63;14.88;;;12.90;94.50;;;;;;5023482;28;20030;-58
2023/02/23 01:49:00;;;;;;;59.67;15.45;;;12.90;94.60;;;;;;5023105;28;20101;-58
2023/02/23 01:51:30;;;;;;;57.78;15.48;;;12.90;94.60;;;;;;5007502;28;20037;-58
2023/02/23 01:54:14;;;;;;;50.50;15.60;;;12.80;94.60;;;;;;5007152;28;20034;-58
2023/02/23 01:56:43;;;;;;;59.70;16.02;;;12.90;94.60;;;;;;5023290;28;20517;-58
2023/02/23 01:59:11;;;;;;;63.00;16.55;;;12.90;94.60;;;;;;5007452;28;20026;-58
2023/02/23 02:01:39;;;;;;;42.88;14.40;;;12.90;94.60;;;;;;5007315;28;20030;-58
2023/02/23 02:04:05;;;;;;;49.03;13.65;;;12.80;94.60;;;;;;5023153;28;20026;-58
2023/02/23 02:06:30;;;;;;;38.50;12.82;;;12.80;94.60;;;;;;5024521;28;20036;-58
2023/02/23 02:08:58;;;;;;;46.13;14.00;;;12.80;94.70;;;;;;5006818;28;20117;-58
2023/02/23 02:11:34;;;;;;;41.65;13.88;;;12.80;94.70;;;;;;5007742;28;20085;-58
2023/02/23 02:14:14;;;;;;;41.80;13.00;;;12.80;94.70;;;;;;5026870;28;20105;-58
2023/02/23 02:17:10;;;;;;;49.63;14.10;;;12.80;94.70;;;;;;5028180;28;20033;-58
2023/02/23 02:19:58;;;;;;;55.88;14.75;;;12.80;94.80;;;;;;5027138;28;20042;-57
2023/02/23 02:23:01;;;;;;;49.20;14.20;;;12.70;94.80;;;;;;5026779;28;20038;-57
2023/02/23 02:25:58;;;;;;;46.80;12.80;;;12.70;94.80;;;;;;5043107;28;20352;-58
2023/02/23 02:28:42;;;;;;;43.10;13.60;;;12.70;94.90;;;;;;5028398;28;20056;-58
2023/02/23 02:31:48;;;;;;;31.83;12.68;;;12.70;94.90;;;;;;5028705;28;20034;-57
2023/02/23 02:34:43;;;;;;;40.55;12.68;;;12.60;94.90;;;;;;4992184;28;20124;-58
2023/02/23 02:37:29;;;;;;;40.95;12.25;;;12.70;95.00;;;;;;5026488;28;20037;-58
2023/02/23 02:40:15;;;;;;;44.95;13.60;;;12.70;95.00;;;;;;5016655;28;20069;-58
2023/02/23 02:42:44;;;;;;;34.90;13.00;;;12.70;94.90;;;;;;5027644;28;20465;-57
2023/02/23 02:45:25;;;;;;;35.22;11.98;;;12.70;95.00;;;;;;5027735;28;20478;-57
2023/02/23 02:48:05;;;;;;;39.38;12.73;;;12.60;95.00;;;;;;5026107;28;20044;-58
2023/02/23 02:50:54;;;;;;;34.60;12.57;;;12.60;95.00;;;;;;5026209;28;20045;-57
2023/02/23 02:53:37;;;;;;;37.42;13.10;;;12.60;95.30;;;;;;5012409;28;20133;-57
2023/02/23 02:56:04;;;;;;;35.95;12.82;;;12.60;95.10;;;;;;5011760;28;20034;-57
2023/02/23 02:58:30;;;;;;;39.05;12.50;;;12.60;95.20;;;;;;5009866;28;20045;-57
2023/02/23 04:17:35;;;;;;;22.38;12.10;;;12.30;95.90;;;;;;5008155;28;20034;-57
2023/02/23 04:20:01;;;;;;;31.52;12.27;;;12.30;96.20;;;;;;5024361;28;20120;-58
2023/02/23 04:22:27;;;;;;;20.73;11.95;;;12.30;95.90;;;;;;5024557;28;20030;-57
2023/02/23 04:24:52;;;;;;;22.35;12.27;;;12.30;95.90;;;;;;5024367;28;20459;-58
2023/02/23 04:27:18;;;;;;;21.95;12.73;;;12.30;95.90;;;;;;5025769;28;20354;-57
2023/02/23 04:29:44;;;;;;;24.17;12.88;;;12.30;96.00;;;;;;5041007;28;20038;-58
2023/02/23 04:32:14;;;;;;;43.88;18.40;;;12.30;96.00;;;;;;5024438;28;20049;-57
2023/02/23 04:34:40;;;;;;;40.97;22.10;;;12.30;96.00;;;;;;5024336;28;20072;-57
2023/02/23 04:37:06;;;;;;;40.13;22.10;;;12.30;96.00;;;;;;5025606;28;20253;-58
2023/02/23 04:39:31;;;;;;;34.83;19.77;;;12.30;96.00;;;;;;5007728;28;20398;-57
2023/02/23 04:41:57;;;;;;;35.72;15.50;;;12.30;96.00;;;;;;5024156;28;20086;-57
2023/02/23 04:44:22;;;;;;;33.28;14.45;;;12.30;96.00;;;;;;5024223;28;20112;-58
2023/02/23 04:46:48;;;;;;;32.95;15.52;;;12.30;96.00;;;;;;5007571;28;20018;-58
2023/02/23 04:49:13;;;;;;;31.98;15.65;;;12.30;95.90;;;;;;5023815;28;20455;-57
2023/02/23 04:51:39;;;;;;;26.15;14.95;;;12.30;95.90;;;;;;5024033;28;20080;-57
2023/02/23 04:54:05;;;;;;;34.75;14.98;;;12.40;96.00;;;;;;5024078;28;20026;-57
2023/02/23 04:56:30;;;;;;;27.83;14.40;;;12.30;96.00;;;;;;5023704;28;20030;-57
2023/02/23 04:58:56;;;;;;;32.30;13.80;;;12.40;96.30;;;;;;5007557;28;20041;-58
2023/02/23 05:01:21;;;;;;;54.45;15.40;;;12.40;96.00;;;;;;5023950;28;20056;-57
2023/02/23 05:03:48;;;;;;;58.65;16.00;;;12.30;95.90;;;;;;5007365;28;20026;-57
2023/02/23 05:06:16;;;;;;;43.40;16.08;;;12.30;95.90;;;;;;5023997;28;20516;-57
2023/02/23 05:08:42;;;;;;;49.50;15.77;;;12.30;95.90;;;;;;5023798;28;20029;-57
2023/02/23 05:11:08;;;;;;;31.77;13.27;;;12.30;95.90;;;;;;5023788;28;20037;-57
2023/02/23 05:13:33;;;;;;;38.53;13.68;;;12.30;96.00;;;;;;5007226;28;20030;-56
2023/02/23 05:15:59;;;;;;;30.80;14.48;;;12.40;96.00;;;;;;5023645;28;20095;-58
2023/02/23 05:18:25;;;;;;;31.48;13.50;;;12.30;96.10;;;;;;5007234;28;20022;-57
2023/02/23 05:20:51;;;;;;;32.38;13.45;;;12.30;96.20;;;;;;5024929;28;20097;-58
2023/02/23 05:23:17;;;;;;;24.98;12.48;;;12.30;96.30;;;;;;5025713;28;20025;-57
2023/02/23 05:25:42;;;;;;;34.85;14.00;;;12.30;96.40;;;;;;5023531;28;20076;-58
2023/02/23 05:28:08;;;;;;;29.63;13.07;;;12.30;96.50;;;;;;5039938;28;20116;-58
2023/02/23 05:30:34;;;;;;;25.35;11.55;;;12.30;96.80;;;;;;5023666;28;20033;-57
2023/02/23 05:33:00;;;;;;;31.63;12.73;;;12.30;96.60;;;;;;5023641;28;20025;-58
2023/02/23 05:35:25;;;;;;;24.77;11.88;;;12.30;96.50;;;;;;5024737;28;20069;-57
2023/02/23 05:37:51;;;;;;;24.08;12.57;;;12.30;96.40;;;;;;5024911;28;20025;-57
2023/02/23 05:40:17;;;;;;;27.63;11.95;;;12.30;96.40;;;;;;5024922;28;20536;-57
2023/02/23 05:42:42;;;;;;;27.73;12.13;;;12.30;96.40;;;;;;5023524;28;20025;-58
2023/02/23 05:45:08;;;;;;;26.60;12.10;;;12.30;96.50;;;;;;5024749;28;20049;-58
2023/02/23 05:47:37;;;;;;;31.33;12.10;;;12.30;96.50;;;;;;5025829;28;20030;-57
2023/02/23 05:50:04;;;;;;;30.40;11.77;;;12.30;96.60;;;;;;5027491;28;20026;-57
2023/02/23 05:52:30;;;;;;;28.15;12.05;;;12.20;96.60;;;;;;5028686;28;20049;-57
2023/02/23 05:54:56;;;;;;;23.40;11.68;;;12.20;96.60;;;;;;5028560;28;20038;-57
2023/02/23 05:57:21;;;;;;;28.77;11.90;;;12.20;96.60;;;;;;5027223;28;20029;-57
2023/02/23 05:59:47;;;;;;;25.33;12.25;;;12.20;96.50;;;;;;5026915;28;20041;-58
2023/02/23 06:02:12;;;;;;;25.15;11.98;;;12.20;96.50;;;;;;5026871;28;20105;-57
2023/02/23 06:04:38;;;;;;;23.00;12.13;;;12.20;96.50;;;;;;5028437;28;20072;-58
2023/02/23 06:07:03;;;;;;;18.25;11.90;;;12.20;96.50;;;;;;5043373;28;20112;-57
2023/02/23 06:09:29;;;;;;;23.98;11.82;;;12.20;96.50;;;;;;5027216;28;20034;-57
2023/02/23 06:11:55;;;;;;;27.90;11.90;;;12.20;96.50;;;;;;5027295;28;20052;-57
2023/02/23 06:14:20;;;;;;;17.35;11.75;;;12.20;96.60;;;;;;5026874;28;20132;-57
2023/02/23 06:16:47;;;;;;;25.13;12.43;;;12.20;96.60;;;;;;5027137;28;20447;-57
2023/02/23 06:19:13;;;;;;;24.23;11.98;;;12.20;96.50;;;;;;5026820;28;20034;-57
2023/02/23 06:21:38;;;;;;;24.88;11.60;;;12.20;96.50;;;;;;5028068;28;20096;-57
2023/02/23 06:24:04;;;;;;;19.42;11.50;;;12.10;96.50;;;;;;5019922;28;20053;-57
2023/02/23 06:26:31;;;;;;;25.60;11.95;;;12.20;96.60;;;;;;5047874;28;20037;-58
2023/02/23 06:28:56;;;;;;;26.73;11.57;;;12.10;96.50;;;;;;5062069;28;20025;-57
2023/02/23 06:31:22;;;;;;;24.15;11.52;;;12.10;96.50;;;;;;5047637;28;20049;-57
2023/02/23 06:33:47;;;;;;;22.33;11.80;;;12.10;96.60;;;;;;5026183;28;20092;-57
2023/02/23 06:36:13;;;;;;;31.02;12.10;;;12.20;96.60;;;;;;5042854;28;20366;-57
2023/02/23 06:38:38;;;;;;;22.55;12.20;;;12.20;96.60;;;;;;5040922;28;20033;-58
2023/02/23 06:41:08;;;;;;;21.30;11.52;;;12.20;96.60;;;;;;5029553;28;20026;-58
2023/02/23 06:43:34;;;;;;;19.63;10.77;;;12.20;96.60;;;;;;5046120;28;20025;-59
2023/02/23 06:45:59;;;;;;;22.70;11.93;;;12.10;96.50;;;;;;5046156;28;20029;-58
2023/02/23 06:48:25;;;;;;;28.08;13.15;;;12.20;96.50;;;;;;5033877;28;20042;-58
2023/02/23 06:50:51;;;;;;;36.20;13.35;;;12.20;96.40;;;;;;5026060;28;20037;-58
2023/02/23 06:53:17;;;;;;;56.45;14.25;;;12.10;96.70;;;;;;5026064;28;20038;-59
2023/02/23 06:55:42;;;;;;;49.33;13.57;;;12.20;96.50;;;;;;5026697;28;20034;-56
2023/02/23 06:58:08;;;;;;;35.90;13.23;;;12.20;96.80;;;;;;5026580;28;20164;-56
2023/02/23 07:00:34;;;;;;;36.40;13.30;;;12.10;96.60;;;;;;5038725;28;20044;-56
2023/02/23 07:02:59;;;;;;;27.95;12.75;;;12.10;96.60;;;;;;5045743;28;20032;-56
2023/02/23 07:05:25;;;;;;;42.67;14.82;;;12.20;96.60;;;;;;5045579;28;20025;-56
2023/02/23 07:07:50;;;;;;;46.50;14.20;;;12.10;96.70;;;;;;5022291;28;20053;-56
2023/02/23 07:10:17;;;;;;;42.00;14.07;;;12.10;96.70;;;;;;5046351;28;20044;-56
2023/02/23 07:12:42;;;;;;;40.92;13.45;;;12.10;96.70;;;;;;5045727;28;20033;-56
2023/02/23 07:15:09;;;;;;;27.90;13.55;;;12.10;96.70;;;;;;5046721;28;20370;-56
2023/02/23 07:17:34;;;;;;;47.97;13.65;;;12.20;96.80;;;;;;5042292;28;20026;-56
2023/02/23 07:20:00;;;;;;;44.15;13.98;;;12.10;96.80;;;;;;5061955;28;20083;-56
2023/02/23 07:22:29;;;;;;;41.28;13.15;;;12.10;96.80;;;;;;5046536;28;20065;-56
2023/02/23 07:24:57;;;;;;;37.00;13.65;;;12.10;96.90;;;;;;5045237;28;20080;-56
2023/02/23 07:27:22;;;;;;;40.13;12.70;;;12.10;96.90;;;;;;5041043;28;20030;-55
2023/02/23 07:29:48;;;;;;;40.08;13.60;;;12.20;96.90;;;;;;5031825;28;20504;-56
2023/02/23 07:32:13;;;;;;;40.78;12.77;;;12.10;96.80;;;;;;5044668;28;20477;-56
2023/02/23 07:34:39;;;;;;;37.28;13.13;;;12.10;96.70;;;;;;5029850;28;20053;-56
2023/02/23 07:37:05;;;;;;;29.65;12.38;;;12.10;96.70;;;;;;5026774;28;20106;-56
2023/02/23 07:39:30;;;;;;;32.95;12.30;;;12.20;96.60;;;;;;5027808;28;20435;-56
2023/02/23 07:41:56;;;;;;;51.25;15.30;;;12.20;96.60;;;;;;5026615;28;20022;-56
2023/02/23 07:44:22;;;;;;;44.05;13.52;;;12.20;96.70;;;;;;5025119;28;20088;-56
2023/02/23 07:46:48;;;;;;;42.15;14.85;;;12.20;96.80;;;;;;5026545;28;20018;-56
2023/02/23 07:49:14;;;;;;;37.25;13.05;;;12.20;96.80;;;;;;5038979;28;20049;-56
2023/02/23 07:51:39;;;;;;;41.92;12.82;;;12.20;96.70;;;;;;5023527;28;20025;-56
2023/02/23 07:54:05;;;;;;;36.00;12.82;;;12.30;96.80;;;;;;5026407;28;20049;-56
2023/02/23 07:56:31;;;;;;;33.40;12.88;;;12.20;96.80;;;;;;5024876;28;20038;-56
2023/02/23 07:58:57;;;;;;;26.95;12.05;;;12.20;96.80;;;;;;5032307;28;20230;-56
2023/02/23 08:01:22;;;;;;;32.30;13.07;;;12.20;96.80;;;;;;5042115;28;20025;-56
2023/02/23 08:03:49;;;;;;;38.13;12.27;;;12.20;96.80;;;;;;5058450;28;20396;-56
2023/02/23 08:06:15;;;;;;;24.77;12.02;;;12.20;96.80;;;;;;5042573;28;20091;-56
2023/02/23 08:08:41;;;;;;;41.50;12.75;;;12.20;96.80;;;;;;5041846;28;20048;-56
2023/02/23 08:11:06;;;;;;;27.73;12.40;;;12.30;96.90;;;;;;5041091;28;20056;-56
2023/02/23 08:13:32;;;;;;;37.65;12.88;;;12.20;96.90;;;;;;5043075;28;20163;-56
2023/02/23 08:15:58;;;;;;;36.63;13.02;;;12.10;96.90;;;;;;5040719;28;20037;-56
2023/02/23 08:18:24;;;;;;;150.55;19.60;;;12.30;97.10;;;;;;5025296;28;20029;-56
2023/02/23 08:20:49;;;;;;;67.40;14.23;;;12.30;97.20;;;;;;5044886;28;20030;-56
2023/02/23 08:23:18;;;;;;;52.03;13.90;;;12.30;97.10;;;;;;5039365;28;20032;-56
2023/02/23 08:25:43;;;;;;;41.65;13.07;;;12.30;97.00;;;;;;5027254;28;20033;-56
2023/02/23 08:28:09;;;;;;;52.60;14.27;;;12.30;96.90;;;;;;5044207;28;20612;-56
2023/02/23 08:30:34;;;;;;;67.82;13.98;;;12.30;97.10;;;;;;5043589;28;20154;-56
2023/02/23 08:33:00;;;;;;;71.60;14.93;;;12.40;97.20;;;;;;5051095;28;20047;-56
2023/02/23 08:35:26;;;;;;;76.57;14.82;;;12.40;97.00;;;;;;5055797;28;20021;-56
2023/02/23 08:37:52;;;;;;;65.63;14.00;;;12.40;96.90;;;;;;5051143;28;20048;-56
2023/02/23 08:40:19;;;;;;;74.82;14.90;;;12.40;97.00;;;;;;5054829;28;20029;-56
2023/02/23 08:42:45;;;;;;;68.85;15.15;;;12.40;97.10;;;;;;5046134;28;20136;-56
2023/02/23 08:45:11;;;;;;;78.88;16.40;;;12.40;97.00;;;;;;5056950;28;20469;-56
2023/02/23 08:47:36;;;;;;;86.07;17.40;;;12.40;97.10;;;;;;5032313;28;20046;-56
2023/02/23 08:50:03;;;;;;;105.68;18.55;;;12.40;97.20;;;;;;5041545;28;20045;-56
2023/02/23 08:52:29;;;;;;;90.53;16.90;;;12.50;97.20;;;;;;5050438;28;20041;-56
2023/02/23 08:54:55;;;;;;;88.38;16.85;;;12.50;97.30;;;;;;5052848;28;20029;-56
2023/02/23 08:57:20;;;;;;;85.45;15.80;;;12.50;97.20;;;;;;5049603;28;20031;-56
2023/02/23 08:59:46;;;;;;;79.97;16.48;;;12.50;97.20;;;;;;5047484;28;20037;-56
2023/02/23 09:02:12;;;;;;;76.85;14.68;;;12.50;97.20;;;;;;5055639;28;20112;-56
2023/02/23 09:04:40;;;;;;;68.10;15.00;;;12.50;97.20;;;;;;5042662;28;20334;-56
2023/02/23 09:07:06;;;;;;;61.65;13.90;;;12.50;97.10;;;;;;5034882;28;20021;-56
2023/02/23 09:09:33;;;;;;;81.28;16.67;;;12.50;97.10;;;;;;5055932;28;20162;-56
2023/02/23 09:11:58;;;;;;;66.38;15.65;;;12.50;97.10;;;;;;5063154;28;20036;-56
2023/02/23 09:14:24;;;;;;;73.00;15.77;;;12.60;97.50;;;;;;5064716;28;20024;-56
2023/02/23 09:16:49;;;;;;;73.13;14.77;;;12.50;97.30;;;;;;5029115;28;20044;-55
2023/02/23 09:19:15;;;;;;;47.13;14.40;;;12.60;97.40;;;;;;5042019;28;20029;-56
2023/02/23 09:21:42;;;;;;;79.57;16.75;;;12.60;97.40;;;;;;5041667;28;20033;-56
2023/02/23 09:24:07;;;;;;;71.32;16.05;;;12.60;97.40;;;;;;5041724;28;20030;-56
2023/02/23 09:26:38;;;;;;;66.80;15.65;;;12.70;97.50;;;;;;5043483;28;20133;-56
2023/02/23 09:29:04;;;;;;;51.30;13.38;;;12.70;97.60;;;;;;5041320;28;20037;-56
2023/02/23 09:31:30;;;;;;;58.67;13.80;;;12.70;97.30;;;;;;5022784;28;20113;-56
2023/02/23 09:33:55;;;;;;;83.68;15.88;;;12.70;97.30;;;;;;5025962;28;20442;-56
2023/02/23 09:36:23;;;;;;;74.15;14.57;;;12.80;97.40;;;;;;5047741;28;20484;-56
2023/02/23 09:38:54;;;;;;;71.80;16.42;;;12.70;97.40;;;;;;5021751;28;20026;-56
2023/02/23 09:41:26;;;;;;;106.03;16.85;;;12.80;97.40;;;;;;5039815;28;20626;-56
2023/02/23 09:44:13;;;;;;;100.53;19.17;;;12.80;97.40;;;;;;5041669;28;20089;-56
2023/02/23 09:46:53;;;;;;;109.03;18.23;;;12.90;97.60;;;;;;5042459;28;20057;-56
2023/02/23 09:49:21;;;;;;;133.77;20.42;;;12.90;97.40;;;;;;5041187;28;20045;-56
2023/02/23 09:51:50;;;;;;;89.35;18.42;;;13.00;97.40;;;;;;5026469;28;20068;-56
2023/02/23 09:54:16;;;;;;;143.85;21.65;;;13.00;97.50;;;;;;5042497;28;20037;-56
2023/02/23 09:56:46;;;;;;;98.95;20.30;;;13.00;97.50;;;;;;5042650;28;20113;-56
2023/02/23 09:59:17;;;;;;;80.38;14.82;;;13.00;97.50;;;;;;5041612;28;20037;-56
2023/02/23 10:01:47;;;;;;;69.32;15.00;;;13.00;97.40;;;;;;5052703;28;20040;-56
2023/02/23 10:04:32;;;;;;;124.43;21.67;;;13.10;97.30;;;;;;5037595;28;20068;-56
2023/02/23 10:07:12;;;;;;;130.30;18.15;;;13.10;97.70;;;;;;5039687;28;20034;-55
2023/02/23 10:09:50;;;;;;;126.63;19.77;;;13.10;97.60;;;;;;5040899;28;20096;-56
2023/02/23 10:12:16;;;;;;;128.48;17.52;;;13.10;97.70;;;;;;5043871;28;20038;-56
2023/02/23 10:15:09;;;;;;;134.43;20.38;;;13.10;97.70;;;;;;5034275;28;20069;-56
2023/02/23 10:17:53;;;;;;;73.72;14.68;;;13.20;97.50;;;;;;5040040;28;20061;-56
2023/02/23 10:20:27;;;;;;;104.57;18.40;;;13.20;97.20;;;;;;5056687;28;20061;-56
2023/02/23 10:22:52;;;;;;;132.27;20.00;;;13.30;97.30;;;;;;5023982;28;20017;-56
2023/02/23 10:25:24;;;;;;;125.70;19.73;;;13.30;97.30;;;;;;5023964;28;20089;-56
2023/02/23 10:27:50;;;;;;;130.00;20.25;;;13.30;97.30;;;;;;5021350;28;20035;-57
2023/02/23 10:30:22;;;;;;;68.93;16.83;;;13.30;97.40;;;;;;5040977;28;20033;-56
2023/02/23 10:33:15;;;;;;;118.22;17.83;;;13.30;97.40;;;;;;5039785;28;20048;-56
2023/02/23 10:35:41;;;;;;;75.72;15.75;;;13.30;97.20;;;;;;5047895;28;20156;-56
2023/02/23 10:38:11;;;;;;;104.90;16.08;;;13.40;97.10;;;;;;5031021;28;20028;-56
2023/02/23 10:40:36;;;;;;;134.50;17.58;;;13.40;97.00;;;;;;5047156;28;20040;-56
2023/02/23 10:43:02;;;;;;;130.88;19.73;;;13.40;97.00;;;;;;5044914;28;20022;-56
2023/02/23 10:45:28;;;;;;;126.78;19.13;;;13.40;97.10;;;;;;5048075;28;20018;-56
2023/02/23 10:48:04;;;;;;;112.25;17.35;;;13.40;97.10;;;;;;5045520;28;20036;-56
2023/02/23 10:50:30;;;;;;;88.70;16.83;;;13.40;97.00;;;;;;5042932;28;20045;-56
2023/02/23 10:53:15;;;;;;;59.53;12.20;;;13.50;97.00;;;;;;5024517;28;20053;-56
2023/02/23 10:55:41;;;;;;;52.10;13.35;;;13.40;96.70;;;;;;5054422;28;20037;-56
2023/02/23 10:58:17;;;;;;;72.68;13.38;;;13.50;96.60;;;;;;5049235;28;20061;-56
2023/02/23 11:00:56;;;;;;;69.50;13.50;;;13.50;96.50;;;;;;5029559;28;20026;-56
2023/02/23 11:03:23;;;;;;;103.50;16.77;;;13.50;96.50;;;;;;5045351;28;20059;-56
2023/02/23 11:05:52;;;;;;;101.72;16.25;;;13.50;96.50;;;;;;5041027;28;20033;-56
2023/02/23 11:08:29;;;;;;;115.53;16.27;;;13.50;96.50;;;;;;5043751;28;20112;-56
2023/02/23 11:10:57;;;;;;;95.40;16.02;;;13.50;96.50;;;;;;5046530;28;20056;-56
2023/02/23 11:13:25;;;;;;;89.20;15.43;;;13.50;96.40;;;;;;5045782;28;20021;-56
2023/02/23 11:16:04;;;;;;;74.75;14.15;;;13.60;96.40;;;;;;5044205;28;20033;-56
2023/02/23 11:18:30;;;;;;;107.63;16.25;;;13.50;95.90;;;;;;5042669;28;20026;-56
2023/02/23 11:20:55;;;;;;;88.18;17.08;;;13.60;96.00;;;;;;5041797;28;20030;-56
2023/02/23 11:23:29;;;;;;;116.13;17.20;;;13.60;96.00;;;;;;5043613;28;20101;-56
2023/02/23 11:26:21;;;;;;;97.38;17.77;;;13.50;96.00;;;;;;5043752;28;20029;-56
2023/02/23 11:28:47;;;;;;;104.15;15.68;;;13.70;96.00;;;;;;5024592;28;20048;-56
2023/02/23 11:31:15;;;;;;;153.82;19.20;;;13.60;95.90;;;;;;4993058;28;20125;-56
2023/02/23 11:33:40;;;;;;;102.68;18.23;;;13.60;95.80;;;;;;5036727;28;20029;-56
2023/02/23 11:36:21;;;;;;;125.50;18.08;;;13.70;95.80;;;;;;5044066;28;20156;-56
2023/02/23 11:38:47;;;;;;;122.07;17.70;;;13.70;95.70;;;;;;5045443;28;20025;-56
2023/02/23 11:41:20;;;;;;;125.22;19.15;;;13.70;95.80;;;;;;5044153;28;20051;-56
2023/02/23 11:43:50;;;;;;;126.95;17.42;;;13.70;95.80;;;;;;5043928;28;20083;-56
2023/02/23 11:46:17;;;;;;;129.00;18.52;;;13.80;95.70;;;;;;5045654;28;20117;-56
2023/02/23 11:48:50;;;;;;;115.55;16.35;;;13.70;95.50;;;;;;5035222;28;20037;-56
2023/02/23 11:51:30;;;;;;;89.90;14.75;;;13.80;95.50;;;;;;5025787;28;20052;-56
2023/02/23 11:53:56;;;;;;;153.60;21.10;;;13.80;95.50;;;;;;5021163;28;20033;-56
2023/02/23 11:56:24;;;;;;;139.55;20.98;;;13.80;95.50;;;;;;5040286;28;20038;-56
2023/02/23 11:58:50;;;;;;;127.68;19.67;;;13.80;95.50;;;;;;5041583;28;20079;-56
2023/02/23 12:01:19;;;;;;;192.35;24.08;;;13.90;95.50;;;;;;5043732;28;20033;-57
2023/02/23 12:03:50;;;;;;;144.30;19.35;;;13.90;95.40;;;;;;5039368;28;20021;-56
2023/02/23 12:06:38;;;;;;;294.92;38.17;;;13.90;95.20;;;;;;5037521;28;20037;-56
2023/02/23 12:09:29;;;;;;;180.68;24.00;;;13.90;95.50;;;;;;5026321;28;20049;-56
2023/02/23 12:12:08;;;;;;;140.70;19.25;;;13.90;95.20;;;;;;5040542;28;20034;-56
2023/02/23 12:14:45;;;;;;;92.93;16.25;;;14.00;95.10;;;;;;5014210;28;20034;-56
2023/02/23 12:17:22;;;;;;;112.82;16.63;;;14.00;94.80;;;;;;5027086;28;20022;-56
2023/02/23 12:19:58;;;;;;;89.45;15.00;;;14.00;94.70;;;;;;5042027;28;20116;-56
2023/02/23 12:22:35;;;;;;;70.85;12.80;;;14.00;94.50;;;;;;5044191;28;20128;-56
2023/02/23 12:25:09;;;;;;;79.50;13.38;;;14.10;94.40;;;;;;5038846;28;20055;-56
2023/02/23 12:27:49;;;;;;;98.72;14.32;;;14.20;94.30;;;;;;5040026;28;20120;-56
2023/02/23 12:30:23;;;;;;;86.97;13.48;;;14.20;94.20;;;;;;5023851;28;20451;-56
2023/02/23 12:33:01;;;;;;;119.82;14.95;;;14.20;94.00;;;;;;5023276;28;20029;-56
2023/02/23 12:35:38;;;;;;;107.97;16.70;;;14.20;94.00;;;;;;5029342;28;20214;-56
2023/02/23 12:38:29;;;;;;;126.28;16.90;;;14.30;94.00;;;;;;5035741;28;20036;-56
2023/02/23 12:41:00;;;;;;;91.95;13.65;;;14.30;93.80;;;;;;5016388;28;20060;-56
2023/02/23 12:43:34;;;;;;;102.25;14.95;;;14.30;93.80;;;;;;5041995;28;20028;-56
2023/02/23 12:46:15;;;;;;;138.30;16.80;;;14.30;93.70;;;;;;5038656;28;20026;-56
2023/02/23 12:48:51;;;;;;;84.57;14.27;;;14.30;93.70;;;;;;5050883;28;20128;-56
2023/02/23 12:51:34;;;;;;;101.03;13.90;;;14.30;93.70;;;;;;5038219;28;20026;-56
2023/02/23 12:54:00;;;;;;;70.78;11.77;;;14.30;93.70;;;;;;5022337;28;20045;-56
2023/02/23 12:56:34;;;;;;;74.53;13.38;;;14.30;93.60;;;;;;5025362;28;20030;-56
2023/02/23 12:59:20;;;;;;;127.22;14.13;;;14.30;93.50;;;;;;5033993;28;20037;-56
2023/02/23 13:01:53;;;;;;;173.20;22.48;;;14.30;93.40;;;;;;5041968;28;20036;-56
2023/02/23 13:04:45;;;;;;;162.00;22.58;;;14.40;93.30;;;;;;5043649;28;20022;-56
2023/02/23 13:07:17;;;;;;;109.80;15.93;;;14.40;93.30;;;;;;5063059;28;20471;-56
2023/02/23 13:09:50;;;;;;;122.60;17.45;;;14.40;93.20;;;;;;5054511;28;20030;-56
2023/02/23 13:12:43;;;;;;;150.02;17.58;;;14.40;93.20;;;;;;5042450;28;20750;-56
2023/02/23 13:15:41;;;;;;;144.18;19.23;;;14.50;93.20;;;;;;5025217;28;20448;-56
2023/02/23 13:18:44;;;;;;;147.68;18.75;;;14.40;93.20;;;;;;5041128;28;20030;-56
2023/02/23 13:21:29;;;;;;;134.98;17.50;;;14.50;93.30;;;;;;5056995;28;20028;-56
2023/02/23 13:23:58;;;;;;;87.70;14.45;;;14.50;93.20;;;;;;5042514;28;20041;-56
2023/02/23 13:27:35;;;;;;;124.30;18.08;;;14.60;93.20;;;;;;5041452;28;20489;-56
2023/02/23 13:30:00;;;;;;;143.18;18.17;;;14.60;93.10;;;;;;4980240;28;20608;-56
2023/02/23 13:32:30;;;;;;;147.45;20.08;;;14.60;93.10;;;;;;5022753;28;20053;-56
2023/02/23 13:34:59;;;;;;;151.60;20.35;;;14.60;93.00;;;;;;5041406;28;20087;-57
2023/02/23 13:38:03;;;;;;;131.05;18.70;;;14.60;93.00;;;;;;5039942;28;20525;-56
2023/02/23 13:40:35;;;;;;;149.60;18.58;;;14.60;93.00;;;;;;5041637;28;20037;-56
2023/02/23 13:43:21;;;;;;;159.32;18.50;;;14.60;93.00;;;;;;5028226;28;20038;-56
2023/02/23 13:46:10;;;;;;;143.25;20.58;;;14.70;93.10;;;;;;5048608;28;20026;-56
2023/02/23 13:48:51;;;;;;;160.63;23.45;;;14.70;93.00;;;;;;5033049;28;20049;-56
2023/02/23 13:51:18;;;;;;;177.95;24.58;;;14.70;93.10;;;;;;5036345;28;20026;-56
2023/02/23 13:54:13;;;;;;;171.57;24.20;;;14.70;93.00;;;;;;5041867;28;20187;-56
2023/02/23 13:57:04;;;;;;;147.18;20.40;;;14.80;93.00;;;;;;5052049;28;20045;-56